sensor_id;sensor_type;location;lat;lon;timestamp;pressure;altitude;pressure_sealevel;temperature;humidity
70684;BME280;58263;48.146;11.440;2024-01-15T00:02:02;94406.56;;;-0.82;85.33
70684;BME280;58263;48.146;11.440;2024-01-15T00:04:28;94399.84;;;-0.85;85.69
70684;BME280;58263;48.146;11.440;2024-01-15T00:06:53;94412.22;;;-0.86;85.70
70684;BME280;58263;48.146;11.440;2024-01-15T00:09:18;94405.31;;;-0.87;85.58
70684;BME280;58263;48.146;11.440;2024-01-15T00:11:44;94408.75;;;-0.86;85.57
70684;BME280;58263;48.146;11.440;2024-01-15T00:14:09;94413.00;;;-0.85;85.32
70684;BME280;58263;48.146;11.440;2024-01-15T00:16:34;94410.38;;;-0.85;84.55
70684;BME280;58263;48.146;11.440;2024-01-15T00:19:00;94418.03;;;-0.90;85.27
70684;BME280;58263;48.146;11.440;2024-01-15T00:21:25;94419.28;;;-0.86;84.87
70684;BME280;58263;48.146;11.440;2024-01-15T00:23:50;94426.13;;;-0.92;84.93
70684;BME280;58263;48.146;11.440;2024-01-15T00:26:15;94429.81;;;-0.86;84.68
70684;BME280;58263;48.146;11.440;2024-01-15T00:28:41;94430.19;;;-0.89;85.23
70684;BME280;58263;48.146;11.440;2024-01-15T00:31:06;94430.19;;;-0.89;85.38
70684;BME280;58263;48.146;11.440;2024-01-15T00:33:32;94431.63;;;-0.87;85.54
70684;BME280;58263;48.146;11.440;2024-01-15T00:35:57;94439.34;;;-0.85;85.31
70684;BME280;58263;48.146;11.440;2024-01-15T00:38:22;94433.31;;;-0.79;85.64
70684;BME280;58263;48.146;11.440;2024-01-15T00:40:48;94451.06;;;-0.88;85.30
70684;BME280;58263;48.146;11.440;2024-01-15T00:43:13;94445.78;;;-0.88;84.28
70684;BME280;58263;48.146;11.440;2024-01-15T00:45:38;94441.56;;;-0.82;84.59
70684;BME280;58263;48.146;11.440;2024-01-15T00:48:04;94452.28;;;-0.83;84.34
70684;BME280;58263;48.146;11.440;2024-01-15T00:50:29;94445.22;;;-0.83;83.88
70684;BME280;58263;48.146;11.440;2024-01-15T00:52:55;94455.75;;;-0.83;84.05
70684;BME280;58263;48.146;11.440;2024-01-15T00:55:20;94460.00;;;-0.82;83.64
70684;BME280;58263;48.146;11.440;2024-01-15T00:57:45;94453.13;;;-0.83;83.45
70684;BME280;58263;48.146;11.440;2024-01-15T01:00:11;94467.53;;;-0.79;83.51
70684;BME280;58263;48.146;11.440;2024-01-15T01:02:36;94468.13;;;-0.77;82.52
70684;BME280;58263;48.146;11.440;2024-01-15T01:05:02;94464.03;;;-0.86;81.90
70684;BME280;58263;48.146;11.440;2024-01-15T01:07:28;94468.44;;;-1.15;81.85
70684;BME280;58263;48.146;11.440;2024-01-15T01:09:53;94464.75;;;-0.99;81.49
70684;BME280;58263;48.146;11.440;2024-01-15T01:12:19;94462.69;;;-1.04;80.44
70684;BME280;58263;48.146;11.440;2024-01-15T01:14:44;94459.19;;;-1.32;79.16
70684;BME280;58263;48.146;11.440;2024-01-15T01:17:09;94472.47;;;-1.41;78.79
70684;BME280;58263;48.146;11.440;2024-01-15T01:19:34;94465.47;;;-1.55;78.67
70684;BME280;58263;48.146;11.440;2024-01-15T01:22:00;94460.22;;;-1.55;77.96
70684;BME280;58263;48.146;11.440;2024-01-15T01:24:25;94458.69;;;-1.64;78.26
70684;BME280;58263;48.146;11.440;2024-01-15T01:26:50;94461.34;;;-1.64;77.73
70684;BME280;58263;48.146;11.440;2024-01-15T01:29:15;94460.06;;;-1.68;78.45
70684;BME280;58263;48.146;11.440;2024-01-15T01:31:44;94467.63;;;-1.80;78.07
70684;BME280;58263;48.146;11.440;2024-01-15T01:34:10;94472.44;;;-1.84;77.76
70684;BME280;58263;48.146;11.440;2024-01-15T01:36:36;94466.81;;;-1.81;77.77
70684;BME280;58263;48.146;11.440;2024-01-15T01:39:01;94474.91;;;-1.82;77.72
70684;BME280;58263;48.146;11.440;2024-01-15T01:41:26;94477.44;;;-1.89;77.82
70684;BME280;58263;48.146;11.440;2024-01-15T01:43:51;94463.03;;;-1.93;77.87
70684;BME280;58263;48.146;11.440;2024-01-15T01:46:17;94463.47;;;-1.90;78.00
70684;BME280;58263;48.146;11.440;2024-01-15T01:48:43;94465.88;;;-1.95;77.90
70684;BME280;58263;48.146;11.440;2024-01-15T01:51:09;94470.03;;;-2.00;77.89
70684;BME280;58263;48.146;11.440;2024-01-15T01:53:36;94470.94;;;-1.93;77.91
70684;BME280;58263;48.146;11.440;2024-01-15T01:56:03;94464.75;;;-2.00;77.15
70684;BME280;58263;48.146;11.440;2024-01-15T01:58:29;94464.16;;;-2.02;77.66
70684;BME280;58263;48.146;11.440;2024-01-15T02:00:56;94467.25;;;-2.14;77.58
70684;BME280;58263;48.146;11.440;2024-01-15T02:03:21;94471.16;;;-2.10;77.35
70684;BME280;58263;48.146;11.440;2024-01-15T02:05:48;94470.59;;;-2.05;77.34
70684;BME280;58263;48.146;11.440;2024-01-15T02:08:14;94473.31;;;-2.13;77.56
70684;BME280;58263;48.146;11.440;2024-01-15T02:10:40;94476.03;;;-2.22;77.66
70684;BME280;58263;48.146;11.440;2024-01-15T02:13:05;94472.31;;;-2.12;77.44
70684;BME280;58263;48.146;11.440;2024-01-15T02:15:30;94485.38;;;-2.19;77.72
70684;BME280;58263;48.146;11.440;2024-01-15T02:17:57;94493.34;;;-2.27;78.57
70684;BME280;58263;48.146;11.440;2024-01-15T02:20:23;94484.91;;;-2.23;77.95
70684;BME280;58263;48.146;11.440;2024-01-15T02:22:48;94479.38;;;-2.28;78.42
70684;BME280;58263;48.146;11.440;2024-01-15T02:25:13;94477.22;;;-2.24;78.35
70684;BME280;58263;48.146;11.440;2024-01-15T02:27:38;94471.06;;;-2.31;78.38
70684;BME280;58263;48.146;11.440;2024-01-15T02:30:05;94472.06;;;-2.32;78.12
70684;BME280;58263;48.146;11.440;2024-01-15T02:32:31;94484.56;;;-2.34;78.49
70684;BME280;58263;48.146;11.440;2024-01-15T02:34:56;94493.53;;;-2.29;77.99
70684;BME280;58263;48.146;11.440;2024-01-15T02:37:22;94494.06;;;-2.33;78.08
70684;BME280;58263;48.146;11.440;2024-01-15T02:39:47;94502.03;;;-2.42;78.72
70684;BME280;58263;48.146;11.440;2024-01-15T02:42:12;94501.75;;;-2.47;78.76
70684;BME280;58263;48.146;11.440;2024-01-15T02:44:37;94496.88;;;-2.35;78.50
70684;BME280;58263;48.146;11.440;2024-01-15T02:47:03;94495.59;;;-2.39;78.30
70684;BME280;58263;48.146;11.440;2024-01-15T02:49:28;94485.38;;;-2.49;78.72
70684;BME280;58263;48.146;11.440;2024-01-15T02:51:53;94483.38;;;-2.47;79.11
70684;BME280;58263;48.146;11.440;2024-01-15T02:54:19;94494.63;;;-2.53;79.05
70684;BME280;58263;48.146;11.440;2024-01-15T02:56:44;94489.00;;;-2.50;79.15
70684;BME280;58263;48.146;11.440;2024-01-15T02:59:09;94489.38;;;-2.53;79.30
70684;BME280;58263;48.146;11.440;2024-01-15T03:01:34;94486.75;;;-2.53;79.48
70684;BME280;58263;48.146;11.440;2024-01-15T03:04:00;94489.28;;;-2.45;79.05
70684;BME280;58263;48.146;11.440;2024-01-15T03:06:25;94490.34;;;-2.39;78.92
70684;BME280;58263;48.146;11.440;2024-01-15T03:08:50;94487.91;;;-2.41;79.00
70684;BME280;58263;48.146;11.440;2024-01-15T03:11:15;94484.13;;;-2.38;78.49
70684;BME280;58263;48.146;11.440;2024-01-15T03:13:41;94485.94;;;-2.39;78.70
70684;BME280;58263;48.146;11.440;2024-01-15T03:16:06;94481.50;;;-2.38;78.75
70684;BME280;58263;48.146;11.440;2024-01-15T03:18:31;94471.00;;;-2.38;78.13
70684;BME280;58263;48.146;11.440;2024-01-15T03:20:57;94480.31;;;-2.35;78.37
70684;BME280;58263;48.146;11.440;2024-01-15T03:23:22;94478.69;;;-2.36;78.26
70684;BME280;58263;48.146;11.440;2024-01-15T03:25:47;94476.69;;;-2.34;78.07
70684;BME280;58263;48.146;11.440;2024-01-15T03:28:13;94480.31;;;-2.35;78.47
70684;BME280;58263;48.146;11.440;2024-01-15T03:30:38;94481.31;;;-2.36;77.90
70684;BME280;58263;48.146;11.440;2024-01-15T03:33:03;94478.69;;;-2.36;78.34
70684;BME280;58263;48.146;11.440;2024-01-15T03:35:28;94472.06;;;-2.32;78.52
70684;BME280;58263;48.146;11.440;2024-01-15T03:37:55;94479.94;;;-2.32;78.25
70684;BME280;58263;48.146;11.440;2024-01-15T03:40:21;94494.81;;;-2.40;77.82
70684;BME280;58263;48.146;11.440;2024-01-15T03:42:46;94491.53;;;-2.42;78.27
70684;BME280;58263;48.146;11.440;2024-01-15T03:45:11;94488.81;;;-2.33;78.61
70684;BME280;58263;48.146;11.440;2024-01-15T03:47:36;94489.28;;;-2.30;78.45
70684;BME280;58263;48.146;11.440;2024-01-15T03:50:02;94482.19;;;-2.29;78.50
70684;BME280;58263;48.146;11.440;2024-01-15T03:52:27;94479.94;;;-2.32;78.39
70684;BME280;58263;48.146;11.440;2024-01-15T03:54:52;94478.13;;;-2.32;78.19
70684;BME280;58263;48.146;11.440;2024-01-15T03:57:18;94471.69;;;-2.29;78.09
70684;BME280;58263;48.146;11.440;2024-01-15T03:59:43;94473.44;;;-2.36;78.67
70684;BME280;58263;48.146;11.440;2024-01-15T04:02:08;94468.19;;;-2.36;78.39
70684;BME280;58263;48.146;11.440;2024-01-15T04:04:34;94465.06;;;-2.25;78.26
70684;BME280;58263;48.146;11.440;2024-01-15T04:06:59;94463.38;;;-2.33;78.32
70684;BME280;58263;48.146;11.440;2024-01-15T04:09:24;94465.44;;;-2.28;78.61
70684;BME280;58263;48.146;11.440;2024-01-15T04:11:49;94459.22;;;-2.27;77.96
70684;BME280;58263;48.146;11.440;2024-01-15T04:14:14;94460.56;;;-2.31;77.84
70684;BME280;58263;48.146;11.440;2024-01-15T04:16:40;94451.72;;;-2.30;78.02
70684;BME280;58263;48.146;11.440;2024-01-15T04:19:05;94457.38;;;-2.27;78.12
70684;BME280;58263;48.146;11.440;2024-01-15T04:21:30;94458.56;;;-2.29;78.16
70684;BME280;58263;48.146;11.440;2024-01-15T04:23:56;94461.84;;;-2.27;78.01
70684;BME280;58263;48.146;11.440;2024-01-15T04:26:21;94458.31;;;-2.34;78.24
70684;BME280;58263;48.146;11.440;2024-01-15T04:28:46;94463.19;;;-2.31;77.92
70684;BME280;58263;48.146;11.440;2024-01-15T04:31:23;94460.56;;;-2.31;77.51
70684;BME280;58263;48.146;11.440;2024-01-15T04:33:49;94459.81;;;-2.25;77.69
70684;BME280;58263;48.146;11.440;2024-01-15T04:36:14;94453.84;;;-2.19;77.95
70684;BME280;58263;48.146;11.440;2024-01-15T04:38:39;94457.94;;;-2.16;77.54
70684;BME280;58263;48.146;11.440;2024-01-15T04:41:04;94460.38;;;-2.15;77.25
70684;BME280;58263;48.146;11.440;2024-01-15T04:43:30;94453.22;;;-2.21;77.56
70684;BME280;58263;48.146;11.440;2024-01-15T04:45:55;94463.88;;;-2.08;77.16
70684;BME280;58263;48.146;11.440;2024-01-15T04:48:20;94462.19;;;-2.15;77.51
70684;BME280;58263;48.146;11.440;2024-01-15T04:50:47;94458.34;;;-2.13;77.11
70684;BME280;58263;48.146;11.440;2024-01-15T04:53:13;94460.75;;;-2.18;77.40
70684;BME280;58263;48.146;11.440;2024-01-15T04:55:38;94460.56;;;-2.31;77.67
70684;BME280;58263;48.146;11.440;2024-01-15T04:58:04;94465.91;;;-2.25;77.49
70684;BME280;58263;48.146;11.440;2024-01-15T05:00:29;94470.41;;;-2.18;77.73
70684;BME280;58263;48.146;11.440;2024-01-15T05:02:54;94454.47;;;-2.17;77.69
70684;BME280;58263;48.146;11.440;2024-01-15T05:05:21;94448.97;;;-2.22;77.29
70684;BME280;58263;48.146;11.440;2024-01-15T05:07:46;94444.97;;;-2.18;77.06
70684;BME280;58263;48.146;11.440;2024-01-15T05:10:11;94453.09;;;-2.13;77.29
70684;BME280;58263;48.146;11.440;2024-01-15T05:12:37;94458.19;;;-2.11;77.56
70684;BME280;58263;48.146;11.440;2024-01-15T05:15:03;94459.63;;;-2.24;77.25
70684;BME280;58263;48.146;11.440;2024-01-15T05:17:28;94454.22;;;-2.22;77.31
70684;BME280;58263;48.146;11.440;2024-01-15T05:19:53;94452.59;;;-2.23;77.20
70684;BME280;58263;48.146;11.440;2024-01-15T05:22:19;94455.41;;;-2.25;77.98
70684;BME280;58263;48.146;11.440;2024-01-15T05:24:44;94448.06;;;-2.29;77.55
70684;BME280;58263;48.146;11.440;2024-01-15T05:27:09;94456.22;;;-2.24;77.86
70684;BME280;58263;48.146;11.440;2024-01-15T05:29:34;94468.72;;;-2.26;78.19
70684;BME280;58263;48.146;11.440;2024-01-15T05:32:00;94457.84;;;-2.23;77.46
70684;BME280;58263;48.146;11.440;2024-01-15T05:34:25;94467.59;;;-2.17;77.24
70684;BME280;58263;48.146;11.440;2024-01-15T05:36:50;94467.16;;;-2.21;77.65
70684;BME280;58263;48.146;11.440;2024-01-15T05:39:15;94455.41;;;-2.25;77.68
70684;BME280;58263;48.146;11.440;2024-01-15T05:41:40;94459.22;;;-2.27;77.53
70684;BME280;58263;48.146;11.440;2024-01-15T05:44:06;94462.44;;;-2.25;77.70
70684;BME280;58263;48.146;11.440;2024-01-15T05:46:31;94463.72;;;-2.21;77.69
70684;BME280;58263;48.146;11.440;2024-01-15T05:48:56;94457.38;;;-2.27;77.29
70684;BME280;58263;48.146;11.440;2024-01-15T05:51:21;94462.44;;;-2.25;77.43
70684;BME280;58263;48.146;11.440;2024-01-15T05:53:47;94466.72;;;-2.24;77.12
70684;BME280;58263;48.146;11.440;2024-01-15T05:56:12;94464.84;;;-2.30;77.50
70684;BME280;58263;48.146;11.440;2024-01-15T05:58:37;94455.22;;;-2.23;77.29
70684;BME280;58263;48.146;11.440;2024-01-15T06:01:03;94459.81;;;-2.25;77.06
70684;BME280;58263;48.146;11.440;2024-01-15T06:03:29;94453.84;;;-2.19;76.75
70684;BME280;58263;48.146;11.440;2024-01-15T06:05:54;94455.59;;;-2.26;76.98
70684;BME280;58263;48.146;11.440;2024-01-15T06:08:19;94455.84;;;-2.21;76.46
70684;BME280;58263;48.146;11.440;2024-01-15T06:10:46;94440.72;;;-2.19;76.19
70684;BME280;58263;48.146;11.440;2024-01-15T06:13:11;94440.53;;;-2.17;76.90
70684;BME280;58263;48.146;11.440;2024-01-15T06:15:36;94451.22;;;-2.19;76.69
70684;BME280;58263;48.146;11.440;2024-01-15T06:18:01;94454.22;;;-2.22;76.38
70684;BME280;58263;48.146;11.440;2024-01-15T06:20:27;94455.22;;;-2.23;76.76
70684;BME280;58263;48.146;11.440;2024-01-15T06:22:52;94456.47;;;-2.19;76.44
70684;BME280;58263;48.146;11.440;2024-01-15T06:25:18;94453.09;;;-2.13;76.87
70684;BME280;58263;48.146;11.440;2024-01-15T06:27:43;94457.75;;;-2.15;76.70
70684;BME280;58263;48.146;11.440;2024-01-15T06:30:09;94458.31;;;-2.19;76.61
70684;BME280;58263;48.146;11.440;2024-01-15T06:32:34;94455.22;;;-2.23;77.16
70684;BME280;58263;48.146;11.440;2024-01-15T06:34:59;94451.50;;;-2.14;76.85
70684;BME280;58263;48.146;11.440;2024-01-15T06:37:25;94453.06;;;-2.19;76.77
70684;BME280;58263;48.146;11.440;2024-01-15T06:39:50;94452.78;;;-2.25;76.89
70684;BME280;58263;48.146;11.440;2024-01-15T06:42:15;94462.25;;;-2.24;77.00
70684;BME280;58263;48.146;11.440;2024-01-15T06:44:40;94455.59;;;-2.26;76.85
70684;BME280;58263;48.146;11.440;2024-01-15T06:47:06;94454.56;;;-2.25;76.50
70684;BME280;58263;48.146;11.440;2024-01-15T06:49:31;94457.94;;;-2.16;76.85
70684;BME280;58263;48.146;11.440;2024-01-15T06:51:56;94457.56;;;-2.13;77.31
70684;BME280;58263;48.146;11.440;2024-01-15T06:54:22;94460.09;;;-2.20;77.02
70684;BME280;58263;48.146;11.440;2024-01-15T06:56:48;94462.09;;;-2.22;76.97
70684;BME280;58263;48.146;11.440;2024-01-15T06:59:13;94463.59;;;-2.13;77.49
70684;BME280;58263;48.146;11.440;2024-01-15T07:01:39;94463.00;;;-2.15;77.17
70684;BME280;58263;48.146;11.440;2024-01-15T07:04:05;94459.19;;;-2.12;77.13
70684;BME280;58263;48.146;11.440;2024-01-15T07:06:30;94458.34;;;-2.13;77.18
70684;BME280;58263;48.146;11.440;2024-01-15T07:08:56;94456.00;;;-2.08;76.85
70684;BME280;58263;48.146;11.440;2024-01-15T07:11:21;94446.66;;;-2.10;76.70
70684;BME280;58263;48.146;11.440;2024-01-15T07:13:46;94430.38;;;-2.06;76.43
70684;BME280;58263;48.146;11.440;2024-01-15T07:16:11;94426.09;;;-2.07;77.36
70684;BME280;58263;48.146;11.440;2024-01-15T07:18:37;94437.00;;;-2.10;77.11
70684;BME280;58263;48.146;11.440;2024-01-15T07:21:02;94440.63;;;-2.11;76.94
70684;BME280;58263;48.146;11.440;2024-01-15T07:23:28;94437.88;;;-2.02;77.13
70684;BME280;58263;48.146;11.440;2024-01-15T07:25:54;94433.06;;;-1.99;77.08
70684;BME280;58263;48.146;11.440;2024-01-15T07:28:19;94439.13;;;-1.98;77.60
70684;BME280;58263;48.146;11.440;2024-01-15T07:30:45;94449.63;;;-1.98;77.60
70684;BME280;58263;48.146;11.440;2024-01-15T07:33:10;94442.81;;;-1.93;77.77
70684;BME280;58263;48.146;11.440;2024-01-15T07:35:36;94442.28;;;-1.88;77.31
70684;BME280;58263;48.146;11.440;2024-01-15T07:38:01;94431.13;;;-1.90;77.69
70684;BME280;58263;48.146;11.440;2024-01-15T07:40:26;94448.09;;;-1.93;77.61
70684;BME280;58263;48.146;11.440;2024-01-15T07:42:51;94451.88;;;-1.95;77.74
70684;BME280;58263;48.146;11.440;2024-01-15T07:45:17;94447.78;;;-1.83;77.42
70684;BME280;58263;48.146;11.440;2024-01-15T07:47:43;94455.06;;;-1.85;77.86
70684;BME280;58263;48.146;11.440;2024-01-15T07:50:09;94451.47;;;-1.77;77.71
70684;BME280;58263;48.146;11.440;2024-01-15T07:52:34;94456.38;;;-1.74;78.03
70684;BME280;58263;48.146;11.440;2024-01-15T07:55:00;94451.06;;;-1.81;77.70
70684;BME280;58263;48.146;11.440;2024-01-15T07:57:26;94447.66;;;-1.75;77.26
70684;BME280;58263;48.146;11.440;2024-01-15T07:59:51;94438.16;;;-1.76;77.62
70684;BME280;58263;48.146;11.440;2024-01-15T08:02:17;94414.88;;;-1.79;77.41
70684;BME280;58263;48.146;11.440;2024-01-15T08:04:42;94426.03;;;-1.77;77.59
70684;BME280;58263;48.146;11.440;2024-01-15T08:07:07;94433.16;;;-1.71;77.61
70684;BME280;58263;48.146;11.440;2024-01-15T08:09:33;94427.09;;;-1.71;77.67
70684;BME280;58263;48.146;11.440;2024-01-15T08:11:58;94426.09;;;-1.70;77.59
70684;BME280;58263;48.146;11.440;2024-01-15T08:14:24;94426.91;;;-1.70;77.12
70684;BME280;58263;48.146;11.440;2024-01-15T08:16:49;94427.22;;;-1.79;77.59
70684;BME280;58263;48.146;11.440;2024-01-15T08:19:14;94423.59;;;-1.78;77.69
70684;BME280;58263;48.146;11.440;2024-01-15T08:21:39;94421.56;;;-1.76;77.42
70684;BME280;58263;48.146;11.440;2024-01-15T08:24:05;94425.63;;;-1.74;77.10
70684;BME280;58263;48.146;11.440;2024-01-15T08:26:31;94413.88;;;-1.78;77.03
70684;BME280;58263;48.146;11.440;2024-01-15T08:28:57;94421.16;;;-1.80;77.29
70684;BME280;58263;48.146;11.440;2024-01-15T08:31:23;94420.75;;;-1.77;77.54
70684;BME280;58263;48.146;11.440;2024-01-15T08:33:48;94420.00;;;-1.71;77.42
70684;BME280;58263;48.146;11.440;2024-01-15T08:36:13;94434.53;;;-1.75;77.61
70684;BME280;58263;48.146;11.440;2024-01-15T08:38:39;94427.66;;;-1.76;77.64
70684;BME280;58263;48.146;11.440;2024-01-15T08:41:04;94425.19;;;-1.77;77.23
70684;BME280;58263;48.146;11.440;2024-01-15T08:43:30;94422.81;;;-1.72;77.61
70684;BME280;58263;48.146;11.440;2024-01-15T08:45:58;94429.72;;;-1.71;77.27
70684;BME280;58263;48.146;11.440;2024-01-15T08:48:24;94429.13;;;-1.66;77.55
70684;BME280;58263;48.146;11.440;2024-01-15T08:50:52;94433.41;;;-1.65;77.87
70684;BME280;58263;48.146;11.440;2024-01-15T08:53:17;94428.78;;;-1.63;77.97
70684;BME280;58263;48.146;11.440;2024-01-15T08:55:42;94423.34;;;-1.62;78.00
70684;BME280;58263;48.146;11.440;2024-01-15T08:58:09;94430.66;;;-1.57;77.81
70684;BME280;58263;48.146;11.440;2024-01-15T09:00:34;94437.53;;;-1.56;77.77
70684;BME280;58263;48.146;11.440;2024-01-15T09:03:00;94439.19;;;-1.55;77.49
70684;BME280;58263;48.146;11.440;2024-01-15T09:05:25;94434.00;;;-1.48;77.58
70684;BME280;58263;48.146;11.440;2024-01-15T09:07:50;94429.09;;;-1.51;77.80
70684;BME280;58263;48.146;11.440;2024-01-15T09:10:17;94438.00;;;-1.52;77.21
70684;BME280;58263;48.146;11.440;2024-01-15T09:12:42;94436.41;;;-1.47;77.34
70684;BME280;58263;48.146;11.440;2024-01-15T09:15:08;94442.22;;;-1.51;77.74
70684;BME280;58263;48.146;11.440;2024-01-15T09:17:33;94435.16;;;-1.51;77.44
70684;BME280;58263;48.146;11.440;2024-01-15T09:19:58;94430.72;;;-1.50;77.39
70684;BME280;58263;48.146;11.440;2024-01-15T09:22:24;94430.53;;;-1.49;77.29
70684;BME280;58263;48.146;11.440;2024-01-15T09:24:49;94425.06;;;-1.47;77.33
70684;BME280;58263;48.146;11.440;2024-01-15T09:27:14;94431.59;;;-1.43;77.38
70684;BME280;58263;48.146;11.440;2024-01-15T09:29:41;94430.41;;;-1.41;76.58
70684;BME280;58263;48.146;11.440;2024-01-15T09:32:07;94441.34;;;-1.37;76.38
70684;BME280;58263;48.146;11.440;2024-01-15T09:34:33;94449.91;;;-1.28;76.74
70684;BME280;58263;48.146;11.440;2024-01-15T09:36:58;94445.56;;;-1.21;76.72
70684;BME280;58263;48.146;11.440;2024-01-15T09:39:25;94437.78;;;-1.29;75.41
70684;BME280;58263;48.146;11.440;2024-01-15T09:41:51;94433.41;;;-1.22;75.50
70684;BME280;58263;48.146;11.440;2024-01-15T09:44:17;94426.09;;;-1.20;75.42
70684;BME280;58263;48.146;11.440;2024-01-15T09:46:42;94436.28;;;-1.17;75.00
70684;BME280;58263;48.146;11.440;2024-01-15T09:49:10;94437.88;;;-1.16;75.34
70684;BME280;58263;48.146;11.440;2024-01-15T09:51:35;94431.88;;;-1.10;74.19
70684;BME280;58263;48.146;11.440;2024-01-15T09:54:01;94442.41;;;-1.10;73.95
70684;BME280;58263;48.146;11.440;2024-01-15T09:56:27;94432.72;;;-1.03;73.75
70684;BME280;58263;48.146;11.440;2024-01-15T09:58:52;94442.00;;;-1.07;73.39
70684;BME280;58263;48.146;11.440;2024-01-15T10:01:20;94427.06;;;-1.06;73.70
70684;BME280;58263;48.146;11.440;2024-01-15T10:03:46;94412.91;;;-0.98;73.66
70684;BME280;58263;48.146;11.440;2024-01-15T10:06:15;94414.94;;;-1.00;74.04
70684;BME280;58263;48.146;11.440;2024-01-15T10:08:43;94422.41;;;-1.04;73.52
70684;BME280;58263;48.146;11.440;2024-01-15T10:11:12;94413.75;;;-0.98;73.12
70684;BME280;58263;48.146;11.440;2024-01-15T10:13:38;94411.91;;;-0.97;73.69
70684;BME280;58263;48.146;11.440;2024-01-15T10:16:04;94414.34;;;-0.96;73.67
70684;BME280;58263;48.146;11.440;2024-01-15T10:18:29;94406.50;;;-0.89;73.24
70684;BME280;58263;48.146;11.440;2024-01-15T10:20:55;94397.63;;;-0.88;72.63
70684;BME280;58263;48.146;11.440;2024-01-15T10:23:23;94390.72;;;-0.89;73.01
70684;BME280;58263;48.146;11.440;2024-01-15T10:25:48;94391.09;;;-0.92;73.05
70684;BME280;58263;48.146;11.440;2024-01-15T10:28:13;94394.94;;;-0.95;72.56
70684;BME280;58263;48.146;11.440;2024-01-15T10:30:39;94378.94;;;-0.93;72.55
70684;BME280;58263;48.146;11.440;2024-01-15T10:33:04;94372.38;;;-0.76;72.52
70684;BME280;58263;48.146;11.440;2024-01-15T10:35:31;94361.44;;;-0.73;72.23
70684;BME280;58263;48.146;11.440;2024-01-15T10:37:57;94370.16;;;-0.72;72.40
70684;BME280;58263;48.146;11.440;2024-01-15T10:40:23;94366.91;;;-0.74;72.33
70684;BME280;58263;48.146;11.440;2024-01-15T10:42:48;94361.13;;;-0.56;73.10
70684;BME280;58263;48.146;11.440;2024-01-15T10:45:14;94380.78;;;-0.52;73.07
70684;BME280;58263;48.146;11.440;2024-01-15T10:47:40;94371.03;;;-0.58;71.90
70684;BME280;58263;48.146;11.440;2024-01-15T10:50:06;94373.91;;;-0.46;72.03
70684;BME280;58263;48.146;11.440;2024-01-15T10:52:34;94352.09;;;-0.33;72.50
70684;BME280;58263;48.146;11.440;2024-01-15T10:55:00;94344.16;;;-0.47;72.48
70684;BME280;58263;48.146;11.440;2024-01-15T10:57:26;94345.38;;;-0.43;72.43
70684;BME280;58263;48.146;11.440;2024-01-15T10:59:51;94342.16;;;-0.31;72.66
70684;BME280;58263;48.146;11.440;2024-01-15T11:02:17;94341.38;;;-0.25;72.83
70684;BME280;58263;48.146;11.440;2024-01-15T11:04:42;94349.72;;;-0.15;72.69
70684;BME280;58263;48.146;11.440;2024-01-15T11:07:07;94352.97;;;-0.13;72.68
70684;BME280;58263;48.146;11.440;2024-01-15T11:09:34;94340.00;;;-0.08;72.80
70684;BME280;58263;48.146;11.440;2024-01-15T11:12:11;94331.69;;;-0.05;72.39
70684;BME280;58263;48.146;11.440;2024-01-15T11:14:46;94339.59;;;-0.11;72.27
70684;BME280;58263;48.146;11.440;2024-01-15T11:17:13;94345.69;;;0.03;72.28
70684;BME280;58263;48.146;11.440;2024-01-15T11:24:57;94348.34;;;0.03;72.38
70684;BME280;58263;48.146;11.440;2024-01-15T11:30:08;94340.78;;;-0.14;71.79
70684;BME280;58263;48.146;11.440;2024-01-15T11:32:34;94336.13;;;-0.19;71.49
70684;BME280;58263;48.146;11.440;2024-01-15T11:35:01;94335.28;;;-0.32;71.73
70684;BME280;58263;48.146;11.440;2024-01-15T11:40:12;94334.38;;;0.22;70.04
70684;BME280;58263;48.146;11.440;2024-01-15T11:42:38;94322.97;;;0.95;68.08
70684;BME280;58263;48.146;11.440;2024-01-15T11:45:03;94313.31;;;1.48;66.18
70684;BME280;58263;48.146;11.440;2024-01-15T11:47:56;94311.38;;;1.68;64.85
70684;BME280;58263;48.146;11.440;2024-01-15T11:50:30;94315.38;;;1.84;63.22
70684;BME280;58263;48.146;11.440;2024-01-15T11:53:03;94315.56;;;2.22;62.34
70684;BME280;58263;48.146;11.440;2024-01-15T11:55:38;94310.38;;;2.59;61.62
70684;BME280;58263;48.146;11.440;2024-01-15T11:58:07;94307.75;;;2.33;61.15
70684;BME280;58263;48.146;11.440;2024-01-15T12:00:33;94308.47;;;1.83;62.46
70684;BME280;58263;48.146;11.440;2024-01-15T12:02:58;94304.78;;;2.48;61.34
70684;BME280;58263;48.146;11.440;2024-01-15T12:05:23;94296.56;;;2.57;60.72
70684;BME280;58263;48.146;11.440;2024-01-15T12:07:49;94300.75;;;2.64;60.67
70684;BME280;58263;48.146;11.440;2024-01-15T12:10:17;94296.94;;;2.85;59.89
70684;BME280;58263;48.146;11.440;2024-01-15T12:12:54;94300.56;;;3.10;59.13
70684;BME280;58263;48.146;11.440;2024-01-15T12:15:21;94282.97;;;3.15;59.99
70684;BME280;58263;48.146;11.440;2024-01-15T12:17:46;94277.13;;;3.62;58.88
70684;BME280;58263;48.146;11.440;2024-01-15T12:20:12;94257.69;;;3.68;57.33
70684;BME280;58263;48.146;11.440;2024-01-15T12:22:38;94240.78;;;3.32;57.36
70684;BME280;58263;48.146;11.440;2024-01-15T12:25:03;94215.03;;;3.21;57.17
70684;BME280;58263;48.146;11.440;2024-01-15T12:27:29;94212.84;;;3.18;56.96
70684;BME280;58263;48.146;11.440;2024-01-15T12:29:54;94225.72;;;3.33;57.56
70684;BME280;58263;48.146;11.440;2024-01-15T12:32:19;94222.84;;;3.34;57.54
70684;BME280;58263;48.146;11.440;2024-01-15T12:34:49;94226.91;;;3.49;57.96
70684;BME280;58263;48.146;11.440;2024-01-15T12:37:14;94232.44;;;3.66;57.61
70684;BME280;58263;48.146;11.440;2024-01-15T12:39:42;94236.97;;;3.47;57.80
70684;BME280;58263;48.146;11.440;2024-01-15T12:42:08;94240.00;;;3.62;57.74
70684;BME280;58263;48.146;11.440;2024-01-15T12:44:33;94234.00;;;3.55;58.23
70684;BME280;58263;48.146;11.440;2024-01-15T12:46:59;94229.84;;;3.59;57.41
70684;BME280;58263;48.146;11.440;2024-01-15T12:49:25;94229.69;;;3.72;57.45
70684;BME280;58263;48.146;11.440;2024-01-15T12:51:54;94231.47;;;3.60;57.38
70684;BME280;58263;48.146;11.440;2024-01-15T12:54:19;94220.59;;;3.50;58.30